^^
Meteo Knjazevac Station Historical Data
Daily Summary for October 13, 2021 Units:  Both    English   Metric
Daily Weekly Monthly Yearly Custom
  High: Low: Average:
Temperature: 55.2 °F /  12.9 °C 39.6 °F /  4.2 °C 47.2 °F /  8.4 °C
Dew Point: 48.5 °F /  9.2 °C 39.3 °F /  4.1 °C 44.3 °F /  6.8 °C
Humidity: 99% 74% 90%
Wind Speed: 8mph /  12.9km/h - 2.6mph /  4.2km/h
Wind Gust: 14mph /  22.5km/h - -
Wind- - SW
Pressure: 30.19 in /  1022.2 hPa 30.01 in /  1016.1 hPa -
Precipitation: 0.00 in /  0 mm    
Historical Graphs
 
 
Tabular Data for October 13, 2021
Time Temperature Dew Point Pressure Wind Wind Speed Wind Gust Humidity Rainfall Rate (Hourly) solar Conditions
00:00 46.9 °F /  8.3 °C 46.7 °F /  8.2 °C 30.03in /  1016.8hPa WSW 3mph /  4.8km/h 6mph /  9.7km/h 99% 0.00in /  0mm 0 W/m2
00:10 46.8 °F /  8.2 °C 46.5 °F /  8.1 °C 30.02in /  1016.5hPa SW 3mph /  4.8km/h 5mph /  8km/h 99% 0.00in /  0mm 0 W/m2
00:20 46.6 °F /  8.1 °C 46.3 °F /  7.9 °C 30.02in /  1016.5hPa SW 2mph /  3.2km/h 6mph /  9.7km/h 99% 0.00in /  0mm 0 W/m2
00:30 46.2 °F /  7.9 °C 46 °F /  7.8 °C 30.02in /  1016.5hPa WSW 2mph /  3.2km/h 5mph /  8km/h 99% 0.00in /  0mm 0 W/m2
00:40 46 °F /  7.8 °C 45.8 °F /  7.7 °C 30.02in /  1016.5hPa WSW 2mph /  3.2km/h 5mph /  8km/h 99% 0.00in /  0mm 0 W/m2
00:50 45.9 °F /  7.7 °C 45.6 °F /  7.6 °C 30.02in /  1016.5hPa West 1mph /  1.6km/h 4mph /  6.4km/h 99% 0.00in /  0mm 0 W/m2
01:00 45.7 °F /  7.6 °C 45.4 °F /  7.4 °C 30.03in /  1016.8hPa Calm   3mph /  4.8km/h 99% 0.00in /  0mm 0 W/m2
01:10 45.3 °F /  7.4 °C 45.1 °F /  7.3 °C 30.03in /  1016.8hPa Calm   1mph /  1.6km/h 99% 0.00in /  0mm 0 W/m2
01:20 45.1 °F /  7.3 °C 44.8 °F /  7.1 °C 30.03in /  1016.8hPa SSE 1mph /  1.6km/h 3mph /  4.8km/h 99% 0.00in /  0mm 0 W/m2
01:30 44.6 °F /  7 °C 44.3 °F /  6.8 °C 30.02in /  1016.5hPa SW 2mph /  3.2km/h 3mph /  4.8km/h 99% 0.00in /  0mm 0 W/m2
01:40 44.4 °F /  6.9 °C 44.2 °F /  6.8 °C 30.02in /  1016.5hPa Calm   2mph /  3.2km/h 99% 0.00in /  0mm 0 W/m2
01:50 44.1 °F /  6.7 °C 43.8 °F /  6.6 °C 30.02in /  1016.5hPa Calm   2mph /  3.2km/h 99% 0.00in /  0mm 0 W/m2
02:00 43.8 °F /  6.6 °C 43.6 °F /  6.4 °C 30.02in /  1016.5hPa Calm   2mph /  3.2km/h 99% 0.00in /  0mm 0 W/m2
02:10 43.5 °F /  6.4 °C 43.3 °F /  6.3 °C 30.02in /  1016.5hPa SSW 1mph /  1.6km/h 3mph /  4.8km/h 99% 0.00in /  0mm 0 W/m2
02:20 43.3 °F /  6.3 °C 43.1 °F /  6.2 °C 30.02in /  1016.5hPa Calm   3mph /  4.8km/h 99% 0.00in /  0mm 0 W/m2
02:30 43.2 °F /  6.2 °C 42.9 °F /  6.1 °C 30.02in /  1016.5hPa Calm   2mph /  3.2km/h 99% 0.00in /  0mm 0 W/m2
02:40 43 °F /  6.1 °C 42.7 °F /  5.9 °C 30.02in /  1016.5hPa ESE 1mph /  1.6km/h 2mph /  3.2km/h 99% 0.00in /  0mm 0 W/m2
02:50 42.8 °F /  6 °C 42.5 °F /  5.8 °C 30.01in /  1016.1hPa East 2mph /  3.2km/h 4mph /  6.4km/h 99% 0.00in /  0mm 0 W/m2
03:00 42.8 °F /  6 °C 42.5 °F /  5.8 °C 30.01in /  1016.1hPa ENE 2mph /  3.2km/h 4mph /  6.4km/h 99% 0.00in /  0mm 0 W/m2
03:10 42.6 °F /  5.9 °C 42.4 °F /  5.8 °C 30.01in /  1016.1hPa NNE 2mph /  3.2km/h 3mph /  4.8km/h 99% 0.00in /  0mm 0 W/m2
03:20 42.4 °F /  5.8 °C 42.2 °F /  5.7 °C 30.01in /  1016.1hPa Calm   3mph /  4.8km/h 99% 0.00in /  0mm 0 W/m2
03:30 42.2 °F /  5.7 °C 42 °F /  5.6 °C 30.02in /  1016.5hPa North 1mph /  1.6km/h 2mph /  3.2km/h 99% 0.00in /  0mm 0 W/m2
03:40 42.1 °F /  5.6 °C 41.8 °F /  5.4 °C 30.02in /  1016.5hPa NNE 2mph /  3.2km/h 3mph /  4.8km/h 99% 0.00in /  0mm 0 W/m2
03:50 41.8 °F /  5.4 °C 41.6 °F /  5.3 °C 30.02in /  1016.5hPa NNE 1mph /  1.6km/h 3mph /  4.8km/h 99% 0.00in /  0mm 0 W/m2
04:00 41.5 °F /  5.3 °C 41.3 °F /  5.2 °C 30.02in /  1016.5hPa Calm   2mph /  3.2km/h 99% 0.00in /  0mm 0 W/m2
04:10 41.2 °F /  5.1 °C 40.9 °F /  4.9 °C 30.02in /  1016.5hPa NW 1mph /  1.6km/h 2mph /  3.2km/h 99% 0.00in /  0mm 0 W/m2
04:20 41 °F /  5 °C 40.7 °F /  4.8 °C 30.02in /  1016.5hPa North 1mph /  1.6km/h 2mph /  3.2km/h 99% 0.00in /  0mm 0 W/m2
04:30 40.8 °F /  4.9 °C 40.6 °F /  4.8 °C 30.02in /  1016.5hPa SW 1mph /  1.6km/h 3mph /  4.8km/h 99% 0.00in /  0mm 0 W/m2
04:40 40.8 °F /  4.9 °C 40.5 °F /  4.7 °C 30.02in /  1016.5hPa Calm   3mph /  4.8km/h 99% 0.00in /  0mm 0 W/m2
04:50 40.6 °F /  4.8 °C 40.4 °F /  4.7 °C 30.03in /  1016.8hPa WSW 1mph /  1.6km/h 4mph /  6.4km/h 99% 0.00in /  0mm 0 W/m2
05:00 40.6 °F /  4.8 °C 40.4 °F /  4.7 °C 30.02in /  1016.5hPa Calm   2mph /  3.2km/h 99% 0.00in /  0mm 0 W/m2
05:10 40.6 °F /  4.8 °C 40.4 °F /  4.7 °C 30.03in /  1016.8hPa SE 2mph /  3.2km/h 4mph /  6.4km/h 99% 0.00in /  0mm 0 W/m2
05:20 40.8 °F /  4.9 °C 40.6 °F /  4.8 °C 30.03in /  1016.8hPa ESE 2mph /  3.2km/h 4mph /  6.4km/h 99% 0.00in /  0mm 0 W/m2
05:30 40.6 °F /  4.8 °C 40.4 °F /  4.7 °C 30.03in /  1016.8hPa NW 1mph /  1.6km/h 5mph /  8km/h 99% 0.00in /  0mm 0 W/m2
05:40 40.6 °F /  4.8 °C 40.3 °F /  4.6 °C 30.03in /  1016.8hPa Calm   2mph /  3.2km/h 99% 0.00in /  0mm 0 W/m2
05:50 40.5 °F /  4.7 °C 40.2 °F /  4.6 °C 30.03in /  1016.8hPa North 1mph /  1.6km/h 4mph /  6.4km/h 99% 0.00in /  0mm 0 W/m2
06:00 40.2 °F /  4.6 °C 40 °F /  4.4 °C 30.03in /  1016.8hPa Calm   3mph /  4.8km/h 99% 0.00in /  0mm 0 W/m2
06:10 40.1 °F /  4.5 °C 39.8 °F /  4.3 °C 30.03in /  1016.8hPa Calm   3mph /  4.8km/h 99% 0.00in /  0mm 0 W/m2
06:20 39.7 °F /  4.3 °C 39.4 °F /  4.1 °C 30.03in /  1016.8hPa Calm   2mph /  3.2km/h 99% 0.00in /  0mm 0 W/m2
06:30 39.6 °F /  4.2 °C 39.3 °F /  4.1 °C 30.03in /  1016.8hPa NNW 1mph /  1.6km/h 2mph /  3.2km/h 99% 0.00in /  0mm 0 W/m2
06:40 39.7 °F /  4.3 °C 39.5 °F /  4.2 °C 30.03in /  1016.8hPa WNW 1mph /  1.6km/h 3mph /  4.8km/h 99% 0.00in /  0mm 0 W/m2
06:50 39.7 °F /  4.3 °C 39.5 °F /  4.2 °C 30.03in /  1016.8hPa NNW 1mph /  1.6km/h 3mph /  4.8km/h 99% 0.00in /  0mm 6 W/m2
07:00 39.7 °F /  4.3 °C 39.5 °F /  4.2 °C 30.04in /  1017.2hPa Calm   3mph /  4.8km/h 99% 0.00in /  0mm 16 W/m2
07:10 39.8 °F /  4.3 °C 39.5 °F /  4.2 °C 30.04in /  1017.2hPa NE 1mph /  1.6km/h 3mph /  4.8km/h 99% 0.00in /  0mm 30 W/m2
07:20 40.1 °F /  4.5 °C 39.8 °F /  4.3 °C 30.04in /  1017.2hPa South 1mph /  1.6km/h 3mph /  4.8km/h 99% 0.00in /  0mm 49 W/m2
07:30 40.6 °F /  4.8 °C 40.4 °F /  4.7 °C 30.04in /  1017.2hPa SSE 2mph /  3.2km/h 6mph /  9.7km/h 99% 0.00in /  0mm 56 W/m2
07:40 40.7 °F /  4.8 °C 40.4 °F /  4.7 °C 30.05in /  1017.5hPa Calm   2mph /  3.2km/h 99% 0.00in /  0mm 55 W/m2
07:50 40.8 °F /  4.9 °C 40.6 °F /  4.8 °C 30.05in /  1017.5hPa Calm   4mph /  6.4km/h 99% 0.00in /  0mm 55 W/m2
08:00 41.2 °F /  5.1 °C 40.9 °F /  4.9 °C 30.05in /  1017.5hPa SW 2mph /  3.2km/h 4mph /  6.4km/h 99% 0.00in /  0mm 66 W/m2
08:10 41.7 °F /  5.4 °C 41.5 °F /  5.3 °C 30.05in /  1017.5hPa SE 2mph /  3.2km/h 4mph /  6.4km/h 99% 0.00in /  0mm 94 W/m2
08:20 42.3 °F /  5.7 °C 42 °F /  5.6 °C 30.06in /  1017.8hPa Calm   4mph /  6.4km/h 99% 0.00in /  0mm 112 W/m2
08:30 42.9 °F /  6.1 °C 42.6 °F /  5.9 °C 30.06in /  1017.8hPa SSW 2mph /  3.2km/h 3mph /  4.8km/h 99% 0.00in /  0mm 156 W/m2
08:40 43.6 °F /  6.4 °C 43.3 °F /  6.3 °C 30.06in /  1017.8hPa WSW 1mph /  1.6km/h 3mph /  4.8km/h 99% 0.00in /  0mm 212 W/m2
08:50 44.7 °F /  7.1 °C 44.4 °F /  6.9 °C 30.06in /  1017.8hPa SW 2mph /  3.2km/h 5mph /  8km/h 99% 0.00in /  0mm 227 W/m2
09:00 45.9 °F /  7.7 °C 45.7 °F /  7.6 °C 30.06in /  1017.8hPa SSW 2mph /  3.2km/h 5mph /  8km/h 99% 0.00in /  0mm 202 W/m2
09:10 46.8 °F /  8.2 °C 46.5 °F /  8.1 °C 30.06in /  1017.8hPa SSW 3mph /  4.8km/h 6mph /  9.7km/h 99% 0.00in /  0mm 223 W/m2
09:20 47.5 °F /  8.6 °C 47.2 °F /  8.4 °C 30.06in /  1017.8hPa South 2mph /  3.2km/h 6mph /  9.7km/h 99% 0.00in /  0mm 261 W/m2
09:30 48.1 °F /  8.9 °C 47.5 °F /  8.6 °C 30.06in /  1017.8hPa SW 1mph /  1.6km/h 3mph /  4.8km/h 98% 0.00in /  0mm 339 W/m2
09:40 49 °F /  9.4 °C 47.9 °F /  8.8 °C 30.06in /  1017.8hPa WSW 1mph /  1.6km/h 5mph /  8km/h 96% 0.00in /  0mm 210 W/m2
09:50 49.6 °F /  9.8 °C 48 °F /  8.9 °C 30.06in /  1017.8hPa South 2mph /  3.2km/h 5mph /  8km/h 94% 0.00in /  0mm 244 W/m2
10:00 50 °F /  10 °C 47.5 °F /  8.6 °C 30.06in /  1017.8hPa SSW 2mph /  3.2km/h 5mph /  8km/h 91% 0.00in /  0mm 464 W/m2
10:10 51.1 °F /  10.6 °C 48.5 °F /  9.2 °C 30.06in /  1017.8hPa WSW 2mph /  3.2km/h 4mph /  6.4km/h 91% 0.00in /  0mm 270 W/m2
10:20 51.8 °F /  11 °C 48.4 °F /  9.1 °C 30.06in /  1017.8hPa WSW 5mph /  8km/h 8mph /  12.9km/h 88% 0.00in /  0mm 253 W/m2
10:30 51.8 °F /  11 °C 47.4 °F /  8.6 °C 30.07in /  1018.2hPa West 5mph /  8km/h 10mph /  16.1km/h 85% 0.00in /  0mm 490 W/m2
10:40 52.2 °F /  11.2 °C 47.5 °F /  8.6 °C 30.07in /  1018.2hPa West 6mph /  9.7km/h 12mph /  19.3km/h 84% 0.00in /  0mm 420 W/m2
10:50 52.4 °F /  11.3 °C 47.1 °F /  8.4 °C 30.07in /  1018.2hPa WSW 5mph /  8km/h 10mph /  16.1km/h 82% 0.00in /  0mm 253 W/m2
11:00 52.3 °F /  11.3 °C 47.3 °F /  8.5 °C 30.06in /  1017.8hPa WSW 3mph /  4.8km/h 10mph /  16.1km/h 83% 0.00in /  0mm 250 W/m2
11:10 52.5 °F /  11.4 °C 47.8 °F /  8.8 °C 30.06in /  1017.8hPa WSW 3mph /  4.8km/h 10mph /  16.1km/h 84% 0.00in /  0mm 353 W/m2
11:20 53 °F /  11.7 °C 47.9 °F /  8.8 °C 30.07in /  1018.2hPa SW 3mph /  4.8km/h 7mph /  11.3km/h 83% 0.00in /  0mm 376 W/m2
11:30 53.1 °F /  11.7 °C 47.1 °F /  8.4 °C 30.06in /  1017.8hPa West 6mph /  9.7km/h 9mph /  14.5km/h 80% 0.00in /  0mm 218 W/m2
11:40 53.1 °F /  11.7 °C 47.4 °F /  8.6 °C 30.06in /  1017.8hPa West 6mph /  9.7km/h 11mph /  17.7km/h 81% 0.00in /  0mm 318 W/m2
11:50 52.9 °F /  11.6 °C 47.5 °F /  8.6 °C 30.06in /  1017.8hPa West 6mph /  9.7km/h 12mph /  19.3km/h 82% 0.00in /  0mm 301 W/m2
12:00 52.9 °F /  11.6 °C 47.9 °F /  8.8 °C 30.06in /  1017.8hPa WSW 6mph /  9.7km/h 12mph /  19.3km/h 83% 0.00in /  0mm 279 W/m2
12:10 53.1 °F /  11.7 °C 47.8 °F /  8.8 °C 30.06in /  1017.8hPa West 5mph /  8km/h 10mph /  16.1km/h 82% 0.00in /  0mm 604 W/m2
12:20 53.4 °F /  11.9 °C 47.7 °F /  8.7 °C 30.07in /  1018.2hPa WSW 6mph /  9.7km/h 13mph /  20.9km/h 81% 0.00in /  0mm 366 W/m2
12:30 53.3 °F /  11.8 °C 47.3 °F /  8.5 °C 30.06in /  1017.8hPa WSW 6mph /  9.7km/h 13mph /  20.9km/h 80% 0.00in /  0mm 303 W/m2
12:40 53.2 °F /  11.8 °C 47.2 °F /  8.4 °C 30.06in /  1017.8hPa WSW 8mph /  12.9km/h 14mph /  22.5km/h 80% 0.00in /  0mm 309 W/m2
12:50 53.4 °F /  11.9 °C 47.4 °F /  8.6 °C 30.06in /  1017.8hPa WSW 5mph /  8km/h 13mph /  20.9km/h 80% 0.00in /  0mm 341 W/m2
13:00 53.4 °F /  11.9 °C 47.1 °F /  8.4 °C 30.06in /  1017.8hPa West 7mph /  11.3km/h 13mph /  20.9km/h 79% 0.00in /  0mm 349 W/m2
13:10 54 °F /  12.2 °C 47.6 °F /  8.7 °C 30.06in /  1017.8hPa WSW 7mph /  11.3km/h 12mph /  19.3km/h 79% 0.00in /  0mm 579 W/m2
13:20 54.3 °F /  12.4 °C 47.6 °F /  8.7 °C 30.06in /  1017.8hPa West 7mph /  11.3km/h 12mph /  19.3km/h 78% 0.00in /  0mm 436 W/m2
13:30 54.3 °F /  12.4 °C 47.6 °F /  8.7 °C 30.06in /  1017.8hPa WSW 5mph /  8km/h 10mph /  16.1km/h 78% 0.00in /  0mm 319 W/m2
13:40 54.5 °F /  12.5 °C 47.8 °F /  8.8 °C 30.06in /  1017.8hPa WSW 8mph /  12.9km/h 9mph /  14.5km/h 78% 0.00in /  0mm 546 W/m2
13:50 54.9 °F /  12.7 °C 47.4 °F /  8.6 °C 30.06in /  1017.8hPa West 6mph /  9.7km/h 11mph /  17.7km/h 76% 0.00in /  0mm 300 W/m2
14:00 54.5 °F /  12.5 °C 46.7 °F /  8.2 °C 30.06in /  1017.8hPa West 6mph /  9.7km/h 14mph /  22.5km/h 75% 0.00in /  0mm 226 W/m2
14:10 54.1 °F /  12.3 °C 46.7 °F /  8.2 °C 30.06in /  1017.8hPa West 6mph /  9.7km/h 14mph /  22.5km/h 76% 0.00in /  0mm 242 W/m2
14:20 53.8 °F /  12.1 °C 46.7 °F /  8.2 °C 30.06in /  1017.8hPa West 7mph /  11.3km/h 13mph /  20.9km/h 77% 0.00in /  0mm 256 W/m2
14:30 53.8 °F /  12.1 °C 46.7 °F /  8.2 °C 30.06in /  1017.8hPa West 5mph /  8km/h 12mph /  19.3km/h 77% 0.00in /  0mm 362 W/m2
14:40 54.2 °F /  12.3 °C 46.5 °F /  8.1 °C 30.06in /  1017.8hPa West 6mph /  9.7km/h 10mph /  16.1km/h 75% 0.00in /  0mm 442 W/m2
14:50 54.7 °F /  12.6 °C 46.6 °F /  8.1 °C 30.06in /  1017.8hPa West 5mph /  8km/h 10mph /  16.1km/h 74% 0.00in /  0mm 290 W/m2
15:00 54.7 °F /  12.6 °C 46.6 °F /  8.1 °C 30.06in /  1017.8hPa West 6mph /  9.7km/h 12mph /  19.3km/h 74% 0.00in /  0mm 317 W/m2
15:10 54.7 °F /  12.6 °C 46.9 °F /  8.3 °C 30.06in /  1017.8hPa West 6mph /  9.7km/h 12mph /  19.3km/h 75% 0.00in /  0mm 175 W/m2
15:20 54.3 °F /  12.4 °C 46.9 °F /  8.3 °C 30.06in /  1017.8hPa WNW 6mph /  9.7km/h 12mph /  19.3km/h 76% 0.00in /  0mm 301 W/m2
15:30 54.1 °F /  12.3 °C 47.1 °F /  8.4 °C 30.06in /  1017.8hPa WNW 6mph /  9.7km/h 12mph /  19.3km/h 77% 0.00in /  0mm 175 W/m2
15:40 54.3 °F /  12.4 °C 46.6 °F /  8.1 °C 30.07in /  1018.2hPa WNW 7mph /  11.3km/h 13mph /  20.9km/h 75% 0.00in /  0mm 282 W/m2
15:50 54.5 °F /  12.5 °C 46.4 °F /  8 °C 30.07in /  1018.2hPa WNW 6mph /  9.7km/h 13mph /  20.9km/h 74% 0.00in /  0mm 272 W/m2
16:00 55 °F /  12.8 °C 47.3 °F /  8.5 °C 30.07in /  1018.2hPa WNW 5mph /  8km/h 12mph /  19.3km/h 75% 0.00in /  0mm 245 W/m2
16:10 55.2 °F /  12.9 °C 47.1 °F /  8.4 °C 30.07in /  1018.2hPa WNW 7mph /  11.3km/h 11mph /  17.7km/h 74% 0.00in /  0mm 218 W/m2
16:20 55 °F /  12.8 °C 47.3 °F /  8.5 °C 30.07in /  1018.2hPa West 5mph /  8km/h 9mph /  14.5km/h 75% 0.00in /  0mm 152 W/m2
16:30 54.7 °F /  12.6 °C 46.6 °F /  8.1 °C 30.07in /  1018.2hPa WNW 5mph /  8km/h 12mph /  19.3km/h 74% 0.00in /  0mm 111 W/m2
16:40 54.1 °F /  12.3 °C 46.3 °F /  7.9 °C 30.07in /  1018.2hPa WNW 7mph /  11.3km/h 10mph /  16.1km/h 75% 0.00in /  0mm 71 W/m2
16:50 53.2 °F /  11.8 °C 46.2 °F /  7.9 °C 30.08in /  1018.5hPa West 5mph /  8km/h 12mph /  19.3km/h 77% 0.00in /  0mm 65 W/m2
17:00 52.9 °F /  11.6 °C 46.2 °F /  7.9 °C 30.08in /  1018.5hPa West 7mph /  11.3km/h 10mph /  16.1km/h 78% 0.00in /  0mm 78 W/m2
17:10 52.5 °F /  11.4 °C 45.9 °F /  7.7 °C 30.08in /  1018.5hPa WNW 3mph /  4.8km/h 11mph /  17.7km/h 78% 0.00in /  0mm 41 W/m2
17:20 52.2 °F /  11.2 °C 45.8 °F /  7.7 °C 30.08in /  1018.5hPa WNW 5mph /  8km/h 10mph /  16.1km/h 79% 0.00in /  0mm 39 W/m2
17:30 52 °F /  11.1 °C 46 °F /  7.8 °C 30.08in /  1018.5hPa West 6mph /  9.7km/h 9mph /  14.5km/h 80% 0.00in /  0mm 22 W/m2
17:40 51.6 °F /  10.9 °C 45.7 °F /  7.6 °C 30.09in /  1018.8hPa West 5mph /  8km/h 7mph /  11.3km/h 80% 0.00in /  0mm 5 W/m2
17:50 51.3 °F /  10.7 °C 45.3 °F /  7.4 °C 30.09in /  1018.8hPa West 5mph /  8km/h 8mph /  12.9km/h 80% 0.00in /  0mm 4 W/m2
18:00 50.8 °F /  10.4 °C 44.9 °F /  7.2 °C 30.10in /  1019.2hPa West 2mph /  3.2km/h 8mph /  12.9km/h 80% 0.00in /  0mm 0 W/m2
18:10 50.5 °F /  10.3 °C 44.9 °F /  7.2 °C 30.10in /  1019.2hPa SSW 1mph /  1.6km/h 4mph /  6.4km/h 81% 0.00in /  0mm 0 W/m2
18:20 50.2 °F /  10.1 °C 45.2 °F /  7.3 °C 30.10in /  1019.2hPa SW 1mph /  1.6km/h 4mph /  6.4km/h 83% 0.00in /  0mm 0 W/m2
18:30 49.8 °F /  9.9 °C 44.9 °F /  7.2 °C 30.11in /  1019.5hPa SW 1mph /  1.6km/h 2mph /  3.2km/h 83% 0.00in /  0mm 0 W/m2
18:40 49.5 °F /  9.7 °C 44.8 °F /  7.1 °C 30.12in /  1019.9hPa West 1mph /  1.6km/h 4mph /  6.4km/h 84% 0.00in /  0mm 0 W/m2
18:50 49.1 °F /  9.5 °C 44.8 °F /  7.1 °C 30.12in /  1019.9hPa SW 1mph /  1.6km/h 2mph /  3.2km/h 85% 0.00in /  0mm 0 W/m2
19:00 48.7 °F /  9.3 °C 44.4 °F /  6.9 °C 30.12in /  1019.9hPa Calm   2mph /  3.2km/h 85% 0.00in /  0mm 0 W/m2
19:10 48.6 °F /  9.2 °C 44.6 °F /  7 °C 30.13in /  1020.2hPa SE 2mph /  3.2km/h 4mph /  6.4km/h 86% 0.00in /  0mm 0 W/m2
19:20 48.2 °F /  9 °C 44.2 °F /  6.8 °C 30.13in /  1020.2hPa SE 1mph /  1.6km/h 3mph /  4.8km/h 86% 0.00in /  0mm 0 W/m2
19:30 47.8 °F /  8.8 °C 44.5 °F /  6.9 °C 30.13in /  1020.2hPa Calm   2mph /  3.2km/h 88% 0.00in /  0mm 0 W/m2
19:40 47.6 °F /  8.7 °C 44.2 °F /  6.8 °C 30.13in /  1020.2hPa SSE 2mph /  3.2km/h 3mph /  4.8km/h 88% 0.00in /  0mm 0 W/m2
19:50 47.1 °F /  8.4 °C 44 °F /  6.7 °C 30.14in /  1020.5hPa NNE 2mph /  3.2km/h 3mph /  4.8km/h 89% 0.00in /  0mm 0 W/m2
20:00 46.9 °F /  8.3 °C 43.9 °F /  6.6 °C 30.14in /  1020.5hPa SSE 1mph /  1.6km/h 4mph /  6.4km/h 89% 0.00in /  0mm 0 W/m2
20:10 46.6 °F /  8.1 °C 43.8 °F /  6.6 °C 30.14in /  1020.5hPa Calm   4mph /  6.4km/h 90% 0.00in /  0mm 0 W/m2
20:20 46.2 °F /  7.9 °C 43.4 °F /  6.3 °C 30.15in /  1020.9hPa SSE 2mph /  3.2km/h 3mph /  4.8km/h 90% 0.00in /  0mm 0 W/m2
20:30 46 °F /  7.8 °C 43.6 °F /  6.4 °C 30.15in /  1020.9hPa Calm   2mph /  3.2km/h 91% 0.00in /  0mm 0 W/m2
20:40 45.9 °F /  7.7 °C 43.4 °F /  6.3 °C 30.15in /  1020.9hPa NNE 1mph /  1.6km/h 3mph /  4.8km/h 91% 0.00in /  0mm 0 W/m2
20:50 45.7 °F /  7.6 °C 43.2 °F /  6.2 °C 30.16in /  1021.2hPa Calm   4mph /  6.4km/h 91% 0.00in /  0mm 0 W/m2
21:00 45.5 °F /  7.5 °C 43.6 °F /  6.4 °C 30.16in /  1021.2hPa West 1mph /  1.6km/h 3mph /  4.8km/h 93% 0.00in /  0mm 0 W/m2
21:10 45.1 °F /  7.3 °C 43.2 °F /  6.2 °C 30.16in /  1021.2hPa West 2mph /  3.2km/h 4mph /  6.4km/h 93% 0.00in /  0mm 0 W/m2
21:20 45 °F /  7.2 °C 43.1 °F /  6.2 °C 30.16in /  1021.2hPa WSW 2mph /  3.2km/h 5mph /  8km/h 93% 0.00in /  0mm 0 W/m2
21:30 44.6 °F /  7 °C 43 °F /  6.1 °C 30.17in /  1021.6hPa WSW 2mph /  3.2km/h 5mph /  8km/h 94% 0.00in /  0mm 0 W/m2
21:40 44.4 °F /  6.9 °C 42.8 °F /  6 °C 30.17in /  1021.6hPa SW 1mph /  1.6km/h 5mph /  8km/h 94% 0.00in /  0mm 0 W/m2
22:00 44.5 °F /  6.9 °C 42.9 °F /  6.1 °C 30.17in /  1021.6hPa SSW 1mph /  1.6km/h 4mph /  6.4km/h 94% 0.00in /  0mm 0 W/m2
22:10 44.4 °F /  6.9 °C 42.8 °F /  6 °C 30.17in /  1021.6hPa North 1mph /  1.6km/h 2mph /  3.2km/h 94% 0.00in /  0mm 0 W/m2
22:20 44.4 °F /  6.9 °C 42.8 °F /  6 °C 30.18in /  1021.9hPa NE 2mph /  3.2km/h 3mph /  4.8km/h 94% 0.00in /  0mm 0 W/m2
22:30 44.4 °F /  6.9 °C 43.1 °F /  6.2 °C 30.18in /  1021.9hPa Calm   2mph /  3.2km/h 95% 0.00in /  0mm 0 W/m2
22:40 44.2 °F /  6.8 °C 42.9 °F /  6.1 °C 30.18in /  1021.9hPa Calm   2mph /  3.2km/h 95% 0.00in /  0mm 0 W/m2
22:50 44.1 °F /  6.7 °C 42.7 °F /  5.9 °C 30.18in /  1021.9hPa Calm   1mph /  1.6km/h 95% 0.00in /  0mm 0 W/m2
23:00 44 °F /  6.7 °C 42.7 °F /  5.9 °C 30.18in /  1021.9hPa Calm   3mph /  4.8km/h 95% 0.00in /  0mm 0 W/m2
23:10 43.7 °F /  6.5 °C 42.4 °F /  5.8 °C 30.18in /  1021.9hPa WSW 2mph /  3.2km/h 3mph /  4.8km/h 95% 0.00in /  0mm 0 W/m2
23:20 43.5 °F /  6.4 °C 42.2 °F /  5.7 °C 30.18in /  1021.9hPa Calm   2mph /  3.2km/h 95% 0.00in /  0mm 0 W/m2
23:30 43.3 °F /  6.3 °C 42 °F /  5.6 °C 30.19in /  1022.2hPa Calm   1mph /  1.6km/h 95% 0.00in /  0mm 0 W/m2
23:40 43.3 °F /  6.3 °C 42.3 °F /  5.7 °C 30.19in /  1022.2hPa ESE 2mph /  3.2km/h 2mph /  3.2km/h 96% 0.00in /  0mm 0 W/m2
23:50 43.3 °F /  6.3 °C 42.3 °F /  5.7 °C 30.19in /  1022.2hPa West 1mph /  1.6km/h 2mph /  3.2km/h 96% 0.00in /  0mm 0 W/m2
Knjazevac, Serbia
Compliments of Weather Underground - 2 mb